Terminal Aerodrome Forecast
Issued by NWS

Home | Current Version | Previous Version | Text Only | Print | Product List | Glossary On
Versions: 1 2 3 4 5 6 7 8 9 10 11 12 13 14 15 16 17 18 19 20 21
231
FTUS43 KABR 132320
TAFATY
TAF
KATY 132320Z 1400/1424 15016G26KT P6SM OVC030
      TEMPO 1401/1403 3SM -SHSN BR BLSN
     FM140300 16019G28KT 1SM -SN BLSN OVC020
     FM140600 16017KT 1SM -SN BLSN OVC010
     FM141600 19007KT P6SM VCSH OVC008=

USA.gov is the U.S. government's official web portal to all federal, state and local government web resources and services.